Time;durP1;ratioP1;P1;durP2;ratioP2;P2;SDS_P1;SDS_P2;PMS_P1;PMS_P2;Temp;Humidity;BMP_temperature;BMP_pressure;BME280_temperature;BME280_humidity;BME280_pressure;Samples;Min_cycle;Max_cycle;Signal;HPM_P1;HPM_P2
2023/08/01 00:02:25;;;;;;;7.93;2.73;;;16.90;99.90;;;;;;5102265;28;20472;-74
2023/08/01 00:04:51;;;;;;;3.30;2.07;;;16.90;99.90;;;;;;5110908;28;20417;-74
2023/08/01 00:07:16;;;;;;;2.43;1.50;;;16.90;99.90;;;;;;5110216;28;20187;-74
2023/08/01 00:09:42;;;;;;;3.63;1.90;;;16.90;99.90;;;;;;5103801;28;20233;-74
2023/08/01 00:12:07;;;;;;;4.00;1.90;;;16.90;99.90;;;;;;5095208;28;20616;-74
2023/08/01 00:14:33;;;;;;;4.10;1.40;;;16.80;99.90;;;;;;5105782;28;20192;-74
2023/08/01 00:16:59;;;;;;;3.53;2.00;;;16.90;99.90;;;;;;5105138;28;20187;-74
2023/08/01 00:19:24;;;;;;;4.80;2.03;;;16.90;99.90;;;;;;5108076;28;20219;-75
2023/08/01 00:21:50;;;;;;;7.07;1.93;;;16.90;99.90;;;;;;5109650;28;20796;-74
2023/08/01 00:24:15;;;;;;;13.53;2.60;;;16.90;99.90;;;;;;5111820;28;20171;-75
2023/08/01 00:26:41;;;;;;;4.23;2.00;;;16.90;99.90;;;;;;5115005;28;20226;-74
2023/08/01 00:29:07;;;;;;;4.50;2.00;;;16.90;99.90;;;;;;5114057;28;20557;-74
2023/08/01 00:31:32;;;;;;;4.00;1.87;;;16.90;99.90;;;;;;5113562;28;20207;-74
2023/08/01 00:33:58;;;;;;;5.73;2.33;;;16.90;99.90;;;;;;5113905;28;20200;-74
2023/08/01 00:36:23;;;;;;;4.17;2.00;;;16.90;99.90;;;;;;5114686;28;20192;-73
2023/08/01 00:38:49;;;;;;;5.20;2.30;;;16.90;99.90;;;;;;5106909;28;20210;-74
2023/08/01 00:41:15;;;;;;;4.60;2.23;;;16.80;99.90;;;;;;5100731;28;20206;-74
2023/08/01 00:43:40;;;;;;;3.80;2.17;;;16.80;99.90;;;;;;5113355;28;20176;-74
2023/08/01 00:46:08;;;;;;;3.87;1.60;;;16.90;99.90;;;;;;5114433;28;20179;-74
2023/08/01 00:48:33;;;;;;;4.40;1.53;;;16.90;99.90;;;;;;5114157;28;20463;-74
2023/08/01 00:51:02;;;;;;;7.80;1.70;;;16.90;99.90;;;;;;5114678;28;20421;-74
2023/08/01 00:53:29;;;;;;;5.93;1.80;;;16.90;99.90;;;;;;5114289;28;20207;-74
2023/08/01 00:55:56;;;;;;;4.50;1.67;;;17.00;99.90;;;;;;5114582;28;20558;-74
2023/08/01 00:58:21;;;;;;;3.00;2.03;;;17.00;99.90;;;;;;5113136;28;20424;-74
2023/08/01 01:00:48;;;;;;;3.63;1.77;;;17.10;99.90;;;;;;5110125;28;20407;-73
2023/08/01 01:03:14;;;;;;;4.33;1.80;;;17.10;99.90;;;;;;5109877;28;20186;-74
2023/08/01 01:05:46;;;;;;;4.87;1.97;;;17.20;99.90;;;;;;5114225;28;20478;-74
2023/08/01 01:08:11;;;;;;;3.57;1.57;;;17.30;99.90;;;;;;5106652;28;20429;-73
2023/08/01 01:10:37;;;;;;;3.90;2.03;;;17.20;99.90;;;;;;5105017;28;20406;-72
2023/08/01 01:13:03;;;;;;;3.50;2.20;;;17.20;99.90;;;;;;5109133;28;20184;-71
2023/08/01 01:15:28;;;;;;;6.60;2.50;;;17.00;99.90;;;;;;5103133;28;20178;-72
2023/08/01 01:17:54;;;;;;;16.30;2.63;;;16.70;99.90;;;;;;5107845;28;20249;-72
2023/08/01 01:20:23;;;;;;;6.60;2.33;;;16.60;99.90;;;;;;5107379;28;20614;-72
2023/08/01 01:22:51;;;;;;;6.23;2.43;;;16.40;99.90;;;;;;5113847;28;20249;-72
2023/08/01 01:25:19;;;;;;;5.80;2.53;;;16.30;99.90;;;;;;5113647;28;20438;-73
2023/08/01 01:27:45;;;;;;;4.77;2.10;;;16.20;99.90;;;;;;5113394;28;21089;-73
2023/08/01 01:30:12;;;;;;;5.07;2.10;;;16.20;99.90;;;;;;5113033;28;20410;-72
2023/08/01 01:32:38;;;;;;;5.00;2.50;;;16.10;99.90;;;;;;5109312;28;20430;-73
2023/08/01 01:35:04;;;;;;;4.90;2.10;;;16.10;99.90;;;;;;5112767;28;20891;-73
2023/08/01 01:37:30;;;;;;;5.27;2.40;;;16.10;99.90;;;;;;5114632;28;20233;-73
2023/08/01 01:39:55;;;;;;;6.23;2.20;;;16.00;99.90;;;;;;5115051;28;20903;-74
2023/08/01 01:42:21;;;;;;;3.97;2.00;;;16.00;99.90;;;;;;5112677;28;20233;-73
2023/08/01 01:44:47;;;;;;;7.07;3.30;;;16.00;99.90;;;;;;5114556;28;20221;-73
2023/08/01 01:47:12;;;;;;;2.50;1.63;;;16.00;99.90;;;;;;5112950;28;20632;-73
2023/08/01 01:49:38;;;;;;;7.60;2.23;;;16.00;99.90;;;;;;5101546;28;20218;-74
2023/08/01 01:52:04;;;;;;;4.60;2.50;;;16.00;99.90;;;;;;5110779;28;20184;-73
2023/08/01 01:54:29;;;;;;;10.43;2.80;;;16.00;99.90;;;;;;5103103;28;20262;-73
2023/08/01 01:56:55;;;;;;;4.47;2.27;;;16.00;99.90;;;;;;5104677;28;20533;-73
2023/08/01 01:59:20;;;;;;;2.70;1.80;;;16.00;99.90;;;;;;5113355;28;20579;-73
2023/08/01 02:01:46;;;;;;;5.30;2.37;;;16.00;99.90;;;;;;5106195;28;20242;-73
2023/08/01 02:04:11;;;;;;;4.27;2.00;;;16.00;99.90;;;;;;5101827;28;20201;-73
2023/08/01 02:06:37;;;;;;;8.60;2.27;;;16.10;99.90;;;;;;5101716;28;20251;-73
2023/08/01 02:09:04;;;;;;;6.70;2.63;;;16.10;99.90;;;;;;5094543;28;20176;-73
2023/08/01 02:11:30;;;;;;;4.80;2.57;;;16.10;99.90;;;;;;5104314;28;20216;-73
2023/08/01 02:13:56;;;;;;;4.03;1.80;;;16.10;99.90;;;;;;5111326;28;20425;-73
2023/08/01 02:16:21;;;;;;;8.33;2.10;;;16.10;99.90;;;;;;5107578;28;20184;-73
2023/08/01 02:18:47;;;;;;;5.07;2.40;;;16.20;99.90;;;;;;5101565;28;20433;-73
2023/08/01 02:21:12;;;;;;;6.10;3.00;;;16.20;99.90;;;;;;5112633;28;20282;-73
2023/08/01 02:23:38;;;;;;;5.13;2.50;;;16.20;99.90;;;;;;5112140;28;20199;-73
2023/08/01 02:26:04;;;;;;;5.47;2.20;;;16.30;99.90;;;;;;5112756;28;20187;-73
2023/08/01 02:28:29;;;;;;;3.90;2.40;;;16.30;99.90;;;;;;5102041;28;20233;-73
2023/08/01 02:30:55;;;;;;;5.03;2.20;;;16.30;99.90;;;;;;5095019;28;20199;-73
2023/08/01 02:33:21;;;;;;;6.90;1.93;;;16.30;99.90;;;;;;5108341;28;20619;-73
2023/08/01 02:35:47;;;;;;;3.57;1.43;;;16.30;99.90;;;;;;5112363;28;20184;-73
2023/08/01 02:38:13;;;;;;;9.10;2.03;;;16.40;99.90;;;;;;5112123;28;20198;-73
2023/08/01 02:40:38;;;;;;;4.20;2.33;;;16.40;99.90;;;;;;5109487;28;20448;-73
2023/08/01 02:43:04;;;;;;;5.77;2.77;;;16.40;99.90;;;;;;5111114;28;20191;-73
2023/08/01 02:45:30;;;;;;;4.80;2.70;;;16.50;99.90;;;;;;5111722;28;20180;-73
2023/08/01 02:47:55;;;;;;;5.30;2.40;;;16.40;99.90;;;;;;5109049;28;20187;-73
2023/08/01 02:50:21;;;;;;;4.27;1.83;;;16.50;99.90;;;;;;5111920;28;20221;-73
2023/08/01 02:52:46;;;;;;;3.27;1.70;;;16.60;99.90;;;;;;5111684;28;20240;-73
2023/08/01 02:55:12;;;;;;;5.10;2.40;;;16.60;99.90;;;;;;5111486;28;20198;-73
2023/08/01 02:57:37;;;;;;;3.03;1.60;;;16.70;99.90;;;;;;5111544;28;20176;-73
2023/08/01 03:00:05;;;;;;;4.13;1.97;;;16.80;99.90;;;;;;5111720;28;20183;-73
2023/08/01 03:02:31;;;;;;;5.53;1.93;;;16.90;99.90;;;;;;5105739;28;20264;-73
2023/08/01 03:04:57;;;;;;;13.13;2.10;;;16.90;99.90;;;;;;5106614;28;20413;-73
2023/08/01 03:07:23;;;;;;;3.03;1.83;;;16.90;99.90;;;;;;5111357;28;20470;-73
2023/08/01 03:09:49;;;;;;;2.73;1.70;;;16.90;99.90;;;;;;5111620;28;20206;-73
2023/08/01 03:12:14;;;;;;;3.80;1.63;;;17.00;99.90;;;;;;5101322;28;20248;-73
2023/08/01 03:14:43;;;;;;;4.33;1.90;;;17.00;99.90;;;;;;5110724;28;20184;-73
2023/08/01 03:17:08;;;;;;;4.23;1.90;;;17.10;99.90;;;;;;5098525;28;20184;-73
2023/08/01 03:19:34;;;;;;;5.63;1.77;;;17.10;99.90;;;;;;5109636;28;20418;-73
2023/08/01 03:22:00;;;;;;;8.27;2.20;;;17.10;99.90;;;;;;5108618;28;20218;-73
2023/08/01 03:24:26;;;;;;;5.10;1.77;;;17.20;99.90;;;;;;5108247;28;20650;-73
2023/08/01 03:26:51;;;;;;;4.80;2.07;;;17.30;99.90;;;;;;5111067;28;20187;-73
2023/08/01 03:29:17;;;;;;;3.17;1.87;;;17.30;99.90;;;;;;5110695;28;20183;-73
2023/08/01 03:31:42;;;;;;;5.13;1.73;;;17.30;99.90;;;;;;5111386;28;20266;-73
2023/08/01 03:34:08;;;;;;;6.80;2.07;;;17.30;99.90;;;;;;5107655;28;20179;-74
2023/08/01 03:36:35;;;;;;;6.80;2.37;;;17.30;99.90;;;;;;5111552;28;20566;-73
2023/08/01 03:39:00;;;;;;;4.83;1.80;;;17.30;99.90;;;;;;5111078;28;20197;-74
2023/08/01 03:41:26;;;;;;;8.53;2.23;;;17.20;99.90;;;;;;5109820;28;20464;-73
2023/08/01 03:43:51;;;;;;;11.20;3.33;;;17.10;99.90;;;;;;5110022;28;20190;-73
2023/08/01 03:46:17;;;;;;;5.13;2.03;;;17.10;99.90;;;;;;5111326;28;20265;-73
2023/08/01 03:48:43;;;;;;;4.40;1.63;;;17.00;99.90;;;;;;5092495;28;20188;-73
2023/08/01 03:51:08;;;;;;;7.87;2.70;;;17.00;99.90;;;;;;5111534;28;20233;-73
2023/08/01 03:53:34;;;;;;;2.73;1.47;;;16.90;99.90;;;;;;5111965;28;20199;-73
2023/08/01 03:56:00;;;;;;;7.73;2.43;;;16.90;99.90;;;;;;5115719;28;20195;-73
2023/08/01 03:58:25;;;;;;;4.17;1.93;;;16.80;99.90;;;;;;5114837;28;20222;-73
2023/08/01 04:00:51;;;;;;;4.07;2.00;;;16.90;99.90;;;;;;5115383;28;20278;-73
2023/08/01 04:03:17;;;;;;;4.40;2.10;;;16.90;99.90;;;;;;5102479;28;20180;-73
2023/08/01 04:05:42;;;;;;;5.63;2.10;;;16.90;99.90;;;;;;5104636;28;20180;-73
2023/08/01 04:08:08;;;;;;;5.33;2.10;;;16.90;99.90;;;;;;5112588;28;20246;-73
2023/08/01 04:10:34;;;;;;;2.60;1.53;;;16.90;99.90;;;;;;5103629;28;20229;-73
2023/08/01 04:12:59;;;;;;;6.00;1.50;;;16.90;99.90;;;;;;5112985;28;20221;-73
2023/08/01 04:15:25;;;;;;;9.63;2.50;;;16.90;99.90;;;;;;5114421;28;20298;-73
2023/08/01 04:17:50;;;;;;;4.60;1.80;;;17.00;99.90;;;;;;5104516;28;20227;-73
2023/08/01 04:20:16;;;;;;;5.10;1.93;;;17.00;99.90;;;;;;5111286;28;20228;-73
2023/08/01 04:22:42;;;;;;;3.20;1.57;;;17.00;99.90;;;;;;5114760;28;20239;-73
2023/08/01 04:25:08;;;;;;;5.07;2.47;;;17.10;99.90;;;;;;5114379;28;20215;-73
2023/08/01 04:27:34;;;;;;;7.40;2.83;;;17.10;99.90;;;;;;5109678;28;20203;-73
2023/08/01 04:29:59;;;;;;;9.80;2.00;;;17.10;99.90;;;;;;5112550;28;20560;-73
2023/08/01 04:32:25;;;;;;;6.57;2.57;;;17.10;99.90;;;;;;5110197;28;20604;-74
2023/08/01 04:34:51;;;;;;;5.20;2.70;;;17.10;99.90;;;;;;5113870;28;20184;-74
2023/08/01 04:37:17;;;;;;;3.83;1.83;;;17.10;99.90;;;;;;5114341;28;20191;-73
2023/08/01 04:39:43;;;;;;;3.87;2.13;;;17.10;99.90;;;;;;5111101;28;20626;-73
2023/08/01 04:42:08;;;;;;;4.67;2.07;;;17.10;99.90;;;;;;5113891;28;20480;-73
2023/08/01 04:44:34;;;;;;;4.53;2.43;;;17.00;99.90;;;;;;5113905;28;20195;-73
2023/08/01 04:46:59;;;;;;;3.83;1.73;;;17.00;99.90;;;;;;5114547;28;20179;-73
2023/08/01 04:49:25;;;;;;;6.77;2.37;;;17.00;99.90;;;;;;5114142;28;20670;-73
2023/08/01 04:51:51;;;;;;;2.70;1.50;;;16.90;99.90;;;;;;5114083;28;20183;-72
2023/08/01 04:54:16;;;;;;;4.80;1.80;;;16.90;99.90;;;;;;5105002;28;20574;-73
2023/08/01 04:56:42;;;;;;;4.63;2.20;;;17.00;99.90;;;;;;5109450;28;20278;-73
2023/08/01 04:59:08;;;;;;;4.80;1.67;;;17.00;99.90;;;;;;5113447;28;20222;-73
2023/08/01 05:01:33;;;;;;;4.07;2.03;;;17.00;99.90;;;;;;5113441;28;20218;-73
2023/08/01 05:03:59;;;;;;;3.77;1.93;;;17.00;99.90;;;;;;5103925;28;20217;-73
2023/08/01 05:06:25;;;;;;;5.73;2.30;;;17.10;99.90;;;;;;5112524;28;21022;-73
2023/08/01 05:08:50;;;;;;;4.33;1.90;;;17.10;99.90;;;;;;5104134;28;20196;-72
2023/08/01 05:11:16;;;;;;;5.43;2.03;;;17.20;99.90;;;;;;5113626;28;20190;-73
2023/08/01 05:13:42;;;;;;;4.53;2.37;;;17.20;99.90;;;;;;5104344;28;20204;-73
2023/08/01 05:16:07;;;;;;;5.27;1.90;;;17.20;99.90;;;;;;5105282;28;20673;-73
2023/08/01 05:18:33;;;;;;;5.47;2.90;;;17.20;99.90;;;;;;5108522;28;20188;-73
2023/08/01 05:20:58;;;;;;;7.67;2.40;;;17.20;99.90;;;;;;5113501;28;20187;-73
2023/08/01 05:23:24;;;;;;;4.20;1.77;;;17.20;99.90;;;;;;5107516;28;20322;-73
2023/08/01 05:25:49;;;;;;;5.90;2.20;;;17.30;99.90;;;;;;5110065;28;20181;-73
2023/08/01 05:28:15;;;;;;;7.90;2.60;;;17.30;99.90;;;;;;5112814;28;20650;-73
2023/08/01 05:30:41;;;;;;;7.37;2.37;;;17.30;99.90;;;;;;5104536;28;20183;-73
2023/08/01 05:33:06;;;;;;;6.83;2.00;;;17.30;99.90;;;;;;5094728;28;20188;-73
2023/08/01 05:35:32;;;;;;;9.30;2.47;;;17.30;99.90;;;;;;5112492;28;20266;-73
2023/08/01 05:37:58;;;;;;;3.10;1.80;;;17.30;99.90;;;;;;5113190;28;20548;-73
2023/08/01 05:40:24;;;;;;;4.50;1.90;;;17.40;99.90;;;;;;5113423;28;20231;-72
2023/08/01 05:42:50;;;;;;;3.00;1.50;;;17.40;99.90;;;;;;5112667;28;21028;-73
2023/08/01 05:45:16;;;;;;;9.60;2.00;;;17.50;99.90;;;;;;5112667;28;20186;-74
2023/08/01 05:47:41;;;;;;;5.53;2.60;;;17.50;99.90;;;;;;5112910;28;20213;-74
2023/08/01 05:50:08;;;;;;;3.00;1.83;;;17.60;99.90;;;;;;5109296;28;20176;-74
2023/08/01 05:52:34;;;;;;;6.83;1.97;;;17.50;99.90;;;;;;5107981;28;20199;-74
2023/08/01 05:55:00;;;;;;;3.90;1.53;;;17.50;99.90;;;;;;5105050;28;20446;-74
2023/08/01 05:57:25;;;;;;;4.00;1.70;;;17.50;99.90;;;;;;5110238;28;21038;-74
2023/08/01 05:59:51;;;;;;;4.60;2.10;;;17.50;99.90;;;;;;5104951;28;20266;-73
2023/08/01 06:02:16;;;;;;;3.17;1.47;;;17.50;99.90;;;;;;5100642;28;20670;-72
2023/08/01 06:04:42;;;;;;;3.77;2.00;;;17.50;99.90;;;;;;5110935;28;20187;-71
2023/08/01 06:07:08;;;;;;;7.90;2.47;;;17.50;99.90;;;;;;5108805;28;20215;-72
2023/08/01 06:09:33;;;;;;;10.87;2.57;;;17.40;99.90;;;;;;5101409;28;20188;-71
2023/08/01 06:11:59;;;;;;;5.10;2.60;;;17.40;99.90;;;;;;5107487;28;20188;-71
2023/08/01 06:14:25;;;;;;;3.97;1.70;;;17.30;99.90;;;;;;5111370;28;20192;-71
2023/08/01 06:16:50;;;;;;;4.57;2.73;;;17.30;99.90;;;;;;5109824;28;20192;-72
2023/08/01 06:19:16;;;;;;;5.17;2.23;;;17.40;99.90;;;;;;5103779;28;20184;-71
2023/08/01 06:21:41;;;;;;;4.50;2.13;;;17.40;99.90;;;;;;5096279;28;20233;-71
2023/08/01 06:24:08;;;;;;;4.47;1.87;;;17.50;99.90;;;;;;5111732;28;20202;-71
2023/08/01 06:26:34;;;;;;;5.47;2.03;;;17.50;99.90;;;;;;5112447;28;20179;-71
2023/08/01 06:28:59;;;;;;;3.93;1.57;;;17.40;99.90;;;;;;5111861;28;20490;-71
2023/08/01 06:31:25;;;;;;;4.23;2.60;;;17.40;99.90;;;;;;5105287;28;20206;-71
2023/08/01 06:33:51;;;;;;;3.43;1.90;;;17.40;99.90;;;;;;5109233;28;20669;-71
2023/08/01 06:36:17;;;;;;;3.50;1.90;;;17.40;99.90;;;;;;5112256;28;20180;-72
2023/08/01 06:38:43;;;;;;;5.90;2.10;;;17.50;99.90;;;;;;5109069;28;20206;-72
2023/08/01 06:41:09;;;;;;;4.53;1.63;;;17.50;99.90;;;;;;5107043;28;20825;-71
2023/08/01 06:43:37;;;;;;;6.00;2.57;;;17.40;99.90;;;;;;5106761;28;20677;-72
2023/08/01 06:46:03;;;;;;;3.50;1.90;;;17.40;99.90;;;;;;5112212;28;20195;-71
2023/08/01 06:48:29;;;;;;;6.97;2.73;;;17.40;99.90;;;;;;5110922;28;20891;-71
2023/08/01 06:50:54;;;;;;;6.53;1.70;;;17.20;99.90;;;;;;5105722;28;20428;-72
2023/08/01 06:53:21;;;;;;;6.00;2.67;;;17.10;99.90;;;;;;5111230;28;20179;-72
2023/08/01 06:55:46;;;;;;;2.60;1.40;;;17.10;99.90;;;;;;5111244;28;20278;-72
2023/08/01 06:58:12;;;;;;;3.67;1.93;;;17.10;99.90;;;;;;5111070;28;20509;-72
2023/08/01 07:00:37;;;;;;;3.33;1.90;;;17.10;99.90;;;;;;5111522;28;20218;-72
2023/08/01 07:03:03;;;;;;;5.70;2.17;;;17.20;99.90;;;;;;5101394;28;20623;-72
2023/08/01 07:05:29;;;;;;;5.20;2.50;;;17.40;99.90;;;;;;5099317;28;20188;-72
2023/08/01 07:07:54;;;;;;;8.30;1.80;;;17.50;99.90;;;;;;5109852;28;20180;-72
2023/08/01 07:10:20;;;;;;;5.63;2.70;;;17.60;99.90;;;;;;5105292;28;20179;-72
2023/08/01 07:12:46;;;;;;;6.23;2.87;;;17.70;99.90;;;;;;5112080;28;20184;-72
2023/08/01 07:15:11;;;;;;;6.73;3.00;;;17.60;99.90;;;;;;5109638;28;20271;-71
2023/08/01 07:17:37;;;;;;;7.50;2.97;;;17.40;99.90;;;;;;5103491;28;20193;-71
2023/08/01 07:20:03;;;;;;;5.70;2.90;;;17.20;99.90;;;;;;5110944;28;20180;-71
2023/08/01 07:22:28;;;;;;;10.83;2.57;;;17.00;99.90;;;;;;5099504;28;20672;-71
2023/08/01 07:24:54;;;;;;;5.77;2.60;;;17.00;99.90;;;;;;5110469;28;20187;-72
2023/08/01 07:27:20;;;;;;;9.73;2.50;;;17.00;99.90;;;;;;5109837;28;20259;-71
2023/08/01 07:29:46;;;;;;;5.03;2.83;;;17.00;99.90;;;;;;5090647;28;20190;-71
2023/08/01 07:32:12;;;;;;;4.23;1.93;;;17.10;99.90;;;;;;5102053;28;20434;-72
2023/08/01 07:34:37;;;;;;;5.33;2.27;;;17.20;99.90;;;;;;5109245;28;20188;-72
2023/08/01 07:37:03;;;;;;;2.80;1.60;;;17.30;99.90;;;;;;5109066;28;20303;-71
2023/08/01 07:39:29;;;;;;;5.63;1.90;;;17.30;99.90;;;;;;5111033;28;20543;-70
2023/08/01 07:41:56;;;;;;;6.60;2.00;;;17.00;99.90;;;;;;5110468;28;20465;-70
2023/08/01 07:44:21;;;;;;;11.20;2.47;;;16.80;99.90;;;;;;5110667;28;20187;-70
2023/08/01 07:46:47;;;;;;;8.63;1.90;;;16.50;99.90;;;;;;5110766;28;20417;-70
2023/08/01 07:49:12;;;;;;;7.03;2.23;;;16.30;99.90;;;;;;5110645;28;20626;-71
2023/08/01 07:51:38;;;;;;;5.20;1.83;;;16.10;99.90;;;;;;5107173;28;20589;-71
2023/08/01 07:54:04;;;;;;;8.20;3.73;;;16.00;99.90;;;;;;5110532;28;20190;-70
2023/08/01 07:56:29;;;;;;;2.63;1.57;;;15.80;99.90;;;;;;5111031;28;20337;-70
2023/08/01 07:58:55;;;;;;;2.13;1.17;;;15.80;99.90;;;;;;5110866;28;20568;-71
2023/08/01 08:01:21;;;;;;;6.93;2.27;;;15.70;99.90;;;;;;5103581;28;20204;-71
2023/08/01 08:03:46;;;;;;;5.43;1.60;;;15.70;99.90;;;;;;5094057;28;20192;-70
2023/08/01 08:06:12;;;;;;;8.67;2.50;;;15.60;99.90;;;;;;5105904;28;20630;-71
2023/08/01 08:08:38;;;;;;;4.80;2.53;;;15.60;99.90;;;;;;5110486;28;20228;-71
2023/08/01 08:11:03;;;;;;;5.20;2.47;;;15.50;99.90;;;;;;5103317;28;20183;-72
2023/08/01 08:13:29;;;;;;;6.23;2.10;;;15.50;99.90;;;;;;5101429;28;20184;-72
2023/08/01 08:15:58;;;;;;;3.20;1.63;;;15.40;99.90;;;;;;5098587;28;20693;-72
2023/08/01 08:18:24;;;;;;;4.03;1.80;;;15.40;99.90;;;;;;5098924;28;20285;-72
2023/08/01 08:20:50;;;;;;;8.10;2.40;;;15.50;99.90;;;;;;5102899;28;20843;-72
2023/08/01 08:23:15;;;;;;;3.03;1.60;;;15.50;99.90;;;;;;5110015;28;20192;-72
2023/08/01 08:25:42;;;;;;;8.87;3.20;;;15.50;99.90;;;;;;5109153;28;20180;-72
2023/08/01 08:28:08;;;;;;;4.40;2.20;;;15.50;99.90;;;;;;5096607;28;20223;-72
2023/08/01 08:30:35;;;;;;;5.13;2.00;;;15.60;99.90;;;;;;5103668;28;20481;-71
2023/08/01 08:33:04;;;;;;;3.83;1.50;;;15.60;99.90;;;;;;5102419;28;20185;-72
2023/08/01 08:35:30;;;;;;;4.10;2.23;;;15.70;99.90;;;;;;5103957;28;20506;-72
2023/08/01 08:37:56;;;;;;;5.20;2.13;;;15.80;99.90;;;;;;5106793;28;20457;-72
2023/08/01 08:40:22;;;;;;;3.97;1.90;;;16.00;99.90;;;;;;5113051;28;20892;-71
2023/08/01 08:42:48;;;;;;;2.67;1.83;;;16.10;99.90;;;;;;5107859;28;20463;-72
2023/08/01 08:45:18;;;;;;;2.23;1.33;;;16.10;99.90;;;;;;5113740;28;20258;-72
2023/08/01 08:47:47;;;;;;;2.20;1.20;;;16.00;99.90;;;;;;5110876;28;20960;-72
2023/08/01 08:50:13;;;;;;;3.40;1.50;;;16.00;99.90;;;;;;5113928;28;20417;-71
2023/08/01 08:52:39;;;;;;;2.70;1.53;;;16.00;99.90;;;;;;5114224;28;20849;-71
2023/08/01 08:55:06;;;;;;;4.60;1.57;;;16.10;99.90;;;;;;5113728;28;20444;-70
2023/08/01 08:57:33;;;;;;;2.90;1.63;;;16.10;99.90;;;;;;5109368;28;21241;-72
2023/08/01 09:00:03;;;;;;;4.57;1.80;;;16.10;99.90;;;;;;5106096;28;20471;-72
2023/08/01 09:02:28;;;;;;;2.27;1.13;;;16.20;99.90;;;;;;5105871;28;20514;-71
2023/08/01 09:04:54;;;;;;;3.87;1.47;;;16.20;99.90;;;;;;5108203;28;20429;-72
2023/08/01 09:07:24;;;;;;;3.93;1.90;;;16.20;99.90;;;;;;5111391;28;20263;-72
2023/08/01 09:09:50;;;;;;;3.47;1.30;;;16.30;99.90;;;;;;5107025;28;20184;-71
2023/08/01 09:12:15;;;;;;;3.83;0.97;;;16.30;99.90;;;;;;5111541;28;20469;-72
2023/08/01 09:14:42;;;;;;;3.43;1.40;;;16.30;99.90;;;;;;5113273;28;20187;-72
2023/08/01 09:17:11;;;;;;;2.30;1.10;;;16.30;99.90;;;;;;5114324;28;20190;-72
2023/08/01 09:19:36;;;;;;;3.13;1.50;;;16.30;99.90;;;;;;5113964;28;20428;-72
2023/08/01 09:22:13;;;;;;;1.80;1.00;;;16.40;99.90;;;;;;5114195;28;20457;-72
2023/08/01 09:24:38;;;;;;;2.03;0.97;;;16.50;99.90;;;;;;5099239;28;20610;-72
2023/08/01 09:27:04;;;;;;;1.87;1.00;;;16.60;99.90;;;;;;5112593;28;21001;-72
2023/08/01 09:29:32;;;;;;;1.63;0.80;;;16.60;99.90;;;;;;5113318;28;20186;-72
2023/08/01 09:31:58;;;;;;;2.13;0.90;;;16.60;99.90;;;;;;5113522;28;20428;-72
2023/08/01 09:34:27;;;;;;;1.87;0.80;;;16.70;99.90;;;;;;5111504;28;20425;-72
2023/08/01 09:37:00;;;;;;;1.40;0.70;;;16.70;99.90;;;;;;5108776;28;20176;-71
2023/08/01 09:39:26;;;;;;;4.70;0.80;;;16.70;99.90;;;;;;5107709;28;20506;-71
2023/08/01 09:41:59;;;;;;;2.03;0.90;;;16.70;99.90;;;;;;5110463;28;20461;-72
2023/08/01 09:44:29;;;;;;;2.80;0.83;;;16.60;99.90;;;;;;5100572;28;20641;-72
2023/08/01 09:47:04;;;;;;;2.37;0.97;;;16.60;99.90;;;;;;5113167;28;20429;-71
2023/08/01 09:49:31;;;;;;;1.90;1.03;;;16.60;99.90;;;;;;5113034;28;20415;-72
2023/08/01 09:51:57;;;;;;;1.60;0.70;;;16.70;99.90;;;;;;5106147;28;20543;-72
2023/08/01 09:54:23;;;;;;;1.10;0.50;;;16.70;99.90;;;;;;5103881;28;20448;-72
2023/08/01 09:56:52;;;;;;;1.77;0.80;;;16.70;99.90;;;;;;5112460;28;20753;-72
2023/08/01 09:59:23;;;;;;;1.60;0.70;;;16.70;99.90;;;;;;5112656;28;20211;-72
2023/08/01 10:01:51;;;;;;;1.87;0.70;;;16.70;99.90;;;;;;5112410;28;20465;-71
2023/08/01 10:04:23;;;;;;;1.20;0.50;;;16.70;99.90;;;;;;5101839;28;20421;-72
2023/08/01 10:07:13;;;;;;;1.90;0.83;;;16.80;99.90;;;;;;5106234;28;20406;-72
2023/08/01 10:09:40;;;;;;;3.30;0.70;;;16.80;99.90;;;;;;5106292;28;20467;-72
2023/08/01 10:12:07;;;;;;;1.20;0.50;;;16.80;99.90;;;;;;5105386;28;20429;-72
2023/08/01 10:14:33;;;;;;;1.67;0.73;;;16.90;99.90;;;;;;5109269;28;20433;-72
2023/08/01 10:16:59;;;;;;;1.50;0.70;;;17.00;99.90;;;;;;5112320;28;20454;-72
2023/08/01 10:19:26;;;;;;;1.43;0.60;;;17.00;99.90;;;;;;5112480;28;20262;-72
2023/08/01 10:21:53;;;;;;;1.50;0.77;;;17.00;99.90;;;;;;5108745;28;20491;-72
2023/08/01 10:24:19;;;;;;;1.80;0.60;;;16.90;99.90;;;;;;5112080;28;20418;-72
2023/08/01 10:26:46;;;;;;;1.60;0.70;;;17.00;99.90;;;;;;5112128;28;20422;-72
2023/08/01 10:29:12;;;;;;;1.80;1.10;;;17.20;99.90;;;;;;5108091;28;20434;-72
2023/08/01 10:31:37;;;;;;;1.27;0.50;;;17.20;99.90;;;;;;5112535;28;20500;-72
2023/08/01 10:34:12;;;;;;;1.53;0.70;;;17.20;99.90;;;;;;5108095;28;20184;-72
2023/08/01 10:36:38;;;;;;;1.40;0.50;;;17.30;99.90;;;;;;5097623;28;20295;-72
2023/08/01 10:39:05;;;;;;;1.60;0.80;;;17.40;99.90;;;;;;5110186;28;20983;-72
2023/08/01 10:41:32;;;;;;;1.60;0.83;;;17.60;99.90;;;;;;5111817;28;20195;-72
2023/08/01 10:44:15;;;;;;;1.30;0.57;;;17.80;99.90;;;;;;5110789;28;20425;-72
2023/08/01 10:46:53;;;;;;;1.40;0.70;;;18.20;99.90;;;;;;5112001;28;20524;-72
2023/08/01 10:49:21;;;;;;;1.30;0.60;;;18.60;99.90;;;;;;5100404;28;20414;-71
2023/08/01 10:51:47;;;;;;;1.40;0.60;;;18.70;99.90;;;;;;5111585;28;20931;-72
2023/08/01 10:54:22;;;;;;;2.33;0.70;;;19.10;99.90;;;;;;5102731;28;20422;-71
2023/08/01 10:56:50;;;;;;;1.20;0.50;;;19.40;99.90;;;;;;5108491;28;20493;-71
2023/08/01 10:59:16;;;;;;;2.57;0.77;;;19.50;99.90;;;;;;5105293;28;20421;-72
2023/08/01 11:01:47;;;;;;;1.40;0.60;;;19.50;99.90;;;;;;5108447;28;20461;-72
2023/08/01 11:04:21;;;;;;;1.30;0.50;;;19.50;99.90;;;;;;5103359;28;20433;-70
2023/08/01 11:06:49;;;;;;;1.30;0.60;;;19.50;99.90;;;;;;5095438;28;20429;-71
2023/08/01 11:09:23;;;;;;;1.40;0.50;;;19.40;99.90;;;;;;5096826;28;20463;-71
2023/08/01 11:11:52;;;;;;;1.80;0.73;;;19.10;99.90;;;;;;5107148;28;20535;-71
2023/08/01 11:14:23;;;;;;;1.60;0.70;;;19.10;99.90;;;;;;5104609;28;20521;-71
2023/08/01 11:16:50;;;;;;;2.50;0.80;;;19.20;99.90;;;;;;5104058;28;20436;-71
2023/08/01 11:19:33;;;;;;;1.40;0.80;;;19.30;99.90;;;;;;5097676;28;20429;-72
2023/08/01 11:22:10;;;;;;;1.73;0.70;;;19.30;99.90;;;;;;5105235;28;20465;-71
2023/08/01 11:24:35;;;;;;;1.60;0.70;;;19.30;99.90;;;;;;5111273;28;20414;-72
2023/08/01 11:27:01;;;;;;;1.40;0.63;;;19.20;99.90;;;;;;5111243;28;20434;-71
2023/08/01 11:29:27;;;;;;;1.50;0.77;;;19.40;99.90;;;;;;5108991;28;20213;-72
2023/08/01 11:31:55;;;;;;;4.10;0.83;;;19.30;99.90;;;;;;5105010;28;20198;-72
2023/08/01 11:34:21;;;;;;;2.67;0.90;;;19.40;99.90;;;;;;5107979;28;20207;-71
2023/08/01 11:36:47;;;;;;;3.10;0.80;;;19.50;99.90;;;;;;5111456;28;20536;-71
2023/08/01 11:39:15;;;;;;;1.50;0.60;;;19.80;99.90;;;;;;5105514;28;20521;-71
2023/08/01 11:41:41;;;;;;;2.73;1.10;;;19.80;99.90;;;;;;5103344;28;20304;-71
2023/08/01 11:44:09;;;;;;;2.27;0.90;;;20.00;99.90;;;;;;5109377;28;20424;-72
2023/08/01 11:46:38;;;;;;;2.30;1.10;;;20.20;99.90;;;;;;5111035;28;20416;-72
2023/08/01 11:49:05;;;;;;;9.17;0.90;;;20.30;99.90;;;;;;5097667;28;20417;-72
2023/08/01 11:51:42;;;;;;;2.60;0.90;;;20.20;99.90;;;;;;5111191;28;20421;-71
2023/08/01 11:54:11;;;;;;;1.40;0.60;;;20.30;99.90;;;;;;5110480;28;20413;-71
2023/08/01 11:56:40;;;;;;;2.53;0.70;;;20.40;99.90;;;;;;5097175;28;20485;-72
2023/08/01 11:59:12;;;;;;;1.70;0.60;;;20.70;99.90;;;;;;5107824;28;20434;-71
2023/08/01 12:01:43;;;;;;;1.50;0.53;;;20.70;99.30;;;;;;5103974;28;20461;-71
2023/08/01 12:04:09;;;;;;;2.57;0.77;;;20.30;99.90;;;;;;5097579;28;20412;-71
2023/08/01 12:06:36;;;;;;;9.93;1.00;;;20.00;99.90;;;;;;5108486;28;20714;-71
2023/08/01 12:09:12;;;;;;;1.83;0.60;;;20.00;99.90;;;;;;5094389;28;20903;-72
2023/08/01 12:11:39;;;;;;;2.10;0.93;;;20.20;99.80;;;;;;5111236;28;20421;-72
2023/08/01 12:14:12;;;;;;;1.63;0.70;;;20.30;99.90;;;;;;5110345;28;20413;-73
2023/08/01 12:16:38;;;;;;;3.50;0.93;;;20.60;99.50;;;;;;5111577;28;20455;-73
2023/08/01 12:19:04;;;;;;;1.90;0.70;;;20.70;99.10;;;;;;5089940;28;20504;-75
2023/08/01 12:21:32;;;;;;;4.93;0.93;;;20.70;97.70;;;;;;5111354;28;21028;-77
2023/08/01 12:23:57;;;;;;;1.40;0.70;;;20.60;99.00;;;;;;5110369;28;20832;-73
2023/08/01 12:26:23;;;;;;;2.40;0.90;;;20.60;99.20;;;;;;5114007;28;20445;-73
2023/08/01 12:28:49;;;;;;;2.73;0.80;;;20.60;99.20;;;;;;5109520;28;20195;-71
2023/08/01 12:31:18;;;;;;;2.07;0.80;;;20.90;98.10;;;;;;5107712;28;20545;-73
2023/08/01 12:33:45;;;;;;;2.47;0.80;;;20.90;97.40;;;;;;5112706;28;20184;-74
2023/08/01 12:36:11;;;;;;;2.43;0.80;;;20.90;97.70;;;;;;5115538;28;20490;-75
2023/08/01 12:38:37;;;;;;;1.30;0.60;;;20.90;98.20;;;;;;5116132;28;20504;-74
2023/08/01 12:41:02;;;;;;;3.03;1.33;;;21.10;97.50;;;;;;5115853;28;20187;-75
2023/08/01 12:43:28;;;;;;;3.00;0.80;;;21.10;98.00;;;;;;5112058;28;20200;-73